Flight Track Log - Related Links

Times and Time Zones

All times are in EDT time to prevent confusion due to time zone crossing. See the UAL822 flight status page for this flight to view local times or setup timezone preferences in your user account.


Time Position Orientation Groundspeed Altitude Reporting Facility
EDT Latitude Longitude Course Direction KTS MPH feet Rate Location/Type
Fri 05:26:34 PM 39.0500 -77.5833 339° North 289 333 5,400  Level Potomac TRACON
Fri 05:27:34 PM 39.1333 -77.5667 North 297 342 9,300 2,300 Climbing Potomac TRACON
Fri 05:28:34 PM 39.2167 -77.5167 25° Northeast 356 410 10,000 350 Climbing Potomac TRACON
Fri 05:29:00 PM 39.0656 -76.7400 78° East  Level FlightAware Approximate
Fri 05:29:34 PM 39.2000 -77.3833 99° East 389 448 10,000  Level Potomac TRACON
Fri 05:30:00 PM 39.0892 -76.5979 78° East  Level FlightAware Approximate
Fri 05:30:34 PM 39.1667 -77.2500 108° East 382 440 10,000  Level Potomac TRACON
Fri 05:31:34 PM 39.1333 -77.1167 108° East 388 447 11,000 2,188 Climbing Potomac TRACON
Fri 05:33:35 PM 39.0819 -76.8564 104° East 399 459 16,600 2,467 Climbing Washington Center
Fri 05:34:34 PM 39.0958 -76.7094 83° East 394 453 18,400 1,200 Climbing Washington Center
Fri 05:35:35 PM 39.1117 -76.5628 82° East 399 459 19,000 1,180 Climbing Washington Center
Fri 05:36:36 PM 39.1294 -76.4158 81° East 406 467 20,800 1,780 Climbing Washington Center
Fri 05:37:33 PM 39.1450 -76.2606 83° East 421 484 22,500 1,077 Climbing Washington Center
Fri 05:38:33 PM 39.1644 -76.1164 80° East 432 497 22,900 197 Climbing Washington Center
Fri 05:39:35 PM 39.1836 -75.9583 81° East 446 513 22,900  Level Washington Center
Fri 05:40:36 PM 39.2528 -75.8300 55° Northeast 434 499 22,900  Level Washington Center
Fri 05:41:34 PM 39.3364 -75.7150 47° Northeast 427 491 22,900  Level Washington Center
Fri 05:42:35 PM 39.4364 -75.6292 34° Northeast 427 491 22,900 555 Level Washington Center
Fri 05:43:33 PM 39.5386 -75.5458 32° Northeast 427 491 24,000 1,576 Climbing Washington Center
Fri 05:44:33 PM 39.6447 -75.4594 32° Northeast 438 504 26,000 2,083 Climbing Washington Center
Fri 05:45:34 PM 39.7467 -75.3731 33° Northeast 438 504 28,200 1,426 Climbing Washington Center
Fri 05:46:35 PM 39.8444 -75.2889 33° Northeast 433 498 28,900 462 Climbing Washington Center
Fri 05:47:05 PM 39.8944 -75.2136 49° Northeast 431 496 28,900 67 Level New York Center
Fri 05:48:05 PM 39.9431 -75.0839 64° Northeast 450 518 29,000  Climbing New York Center
Fri 05:49:06 PM 40.0131 -74.9339 59° Northeast 445 512 28,900 -49 Descending New York Center
Fri 05:50:07 PM 40.0739 -74.7992 59° Northeast 433 498 28,900  Level New York Center
Fri 05:51:07 PM 40.1467 -74.6783 52° Northeast 422 486 28,900  Level New York Center
Fri 05:52:07 PM 40.2200 -74.5467 54° Northeast 428 493 28,900  Level New York Center
Fri 05:53:06 PM 40.2906 -74.4225 53° Northeast 445 512 28,900  Level New York Center
Fri 05:54:06 PM 40.3675 -74.2931 52° Northeast 451 519 28,900  Level New York Center
Fri 05:55:07 PM 40.4483 -74.1583 52° Northeast 456 525 28,900  Level New York Center
Fri 05:56:07 PM 40.5231 -74.0228 54° Northeast 456 525 28,900 -841 Level New York Center
Fri 05:57:51 PM 40.6689 -73.7808 51° Northeast 451 519 26,600 -1,134 Descending Boston Center
Fri 05:58:51 PM 40.7136 -73.7022 53° Northeast 451 519 25,800 -1,200 Descending Boston Center
Fri 05:59:51 PM 40.8072 -73.5206 56° Northeast 457 526 24,200 -950 Descending Boston Center
Fri 06:00:51 PM 40.8811 -73.3981 51° Northeast 437 503 23,900 -300 Descending Boston Center
Fri 06:01:51 PM 40.9842 -73.3006 36° Northeast 412 474 23,600 -350 Descending Boston Center
Fri 06:02:51 PM 41.0681 -73.2386 29° Northeast 412 474 23,200 -300 Descending Boston Center
Fri 06:03:51 PM 41.1894 -73.1517 28° Northeast 412 474 23,000 -150 Descending Boston Center
Fri 06:04:51 PM 41.2919 -73.0700 31° Northeast 418 481 22,900 -50 Descending Boston Center
Fri 06:05:51 PM 41.3633 -72.9489 52° Northeast 418 481 22,900  Level Boston Center
Fri 06:06:51 PM 41.3892 -72.7914 78° East 405 466 22,900  Level Boston Center
Fri 06:07:51 PM 41.4081 -72.6642 79° East 416 479 22,900  Level Boston Center
Fri 06:08:51 PM 41.4375 -72.4928 77° East 421 484 22,900  Level Boston Center
Fri 06:09:51 PM 41.4606 -72.3322 79° East 432 497 22,900 -150 Level Boston Center
Fri 06:10:51 PM 41.4936 -72.1631 75° East 426 490 22,600 -550 Descending Boston Center
Fri 06:11:51 PM 41.5472 -72.0214 63° Northeast 426 490 21,800 -1,000 Descending Boston Center
Fri 06:12:51 PM 41.5883 -71.8906 67° East 409 471 20,600 -2,300 Descending Boston Center
Fri 06:13:51 PM 41.6169 -71.7681 73° East 371 427 17,200 -3,150 Descending Boston Center
Fri 06:14:51 PM 41.6100 -71.6517 95° East 339 390 14,300 -2,500 Descending Boston Center
Fri 06:15:51 PM 41.6297 -71.5236 78° East 325 374 12,200 -1,600 Descending Boston Center
Fri 06:16:51 PM 41.6769 -71.4422 52° Northeast 303 349 11,100 -600 Descending Boston Center
Fri 06:17:51 PM 41.7300 -71.3303 58° Northeast 311 358 11,000 -50 Descending Boston Center
Fri 06:18:51 PM 41.8047 -71.2761 28° Northeast 303 349 11,000 -300 Level Boston Center
Fri 06:19:51 PM 41.8833 -71.2356 21° North 298 343 10,400 -1,300 Descending Boston Center
Fri 06:20:51 PM 41.9622 -71.1978 20° North 298 343 8,400 -1,850 Descending Boston Center
Fri 06:21:51 PM 42.0389 -71.1625 19° North 292 336 6,700 -1,700 Descending Boston Center
Fri 06:22:51 PM 42.1094 -71.1275 20° North 280 322 5,000 -1,650 Descending Boston Center
Fri 06:23:11 PM 42.1333 -71.1167 19° North 271 312 4,500 -1,308 Descending KA90
Fri 06:24:09 PM 42.2167 -71.0833 17° North 275 316 3,300 -1,241 Descending KA90

Login

Don't have an account? Register now (free) for customized features, flight alerts, and more!